Time;durP1;ratioP1;P1;durP2;ratioP2;P2;SDS_P1;SDS_P2;PMS_P1;PMS_P2;Temp;Humidity;BMP_temperature;BMP_pressure;BME280_temperature;BME280_humidity;BME280_pressure;Samples;Min_cycle;Max_cycle;Signal;HPM_P1;HPM_P2
2021/04/21 00:00:09;;;;;;;;;;;8.10;99.90;;;;;;10292820;28;20370;-85
2021/04/21 00:05:11;;;;;;;;;;;8.00;99.90;;;;;;10303068;28;19930;-84
2021/04/21 00:10:12;;;;;;;;;;;7.90;99.90;;;;;;10306846;28;19930;-85
2021/04/21 00:15:15;;;;;;;;;;;7.80;99.90;;;;;;10321824;28;19926;-85
2021/04/21 00:20:18;;;;;;;;;;;7.80;99.90;;;;;;10331935;28;20033;-85
2021/04/21 00:25:19;;;;;;;;;;;8.90;99.90;;;;;;10332887;28;19926;-85
2021/04/21 00:30:23;;;;;;;;;;;9.00;99.90;;;;;;10331909;28;19976;-85
2021/04/21 00:35:34;;;;;;;;;;;7.70;99.90;;;;;;10389715;28;19925;-85
2021/04/21 00:40:47;;;;;;;;;;;7.70;99.90;;;;;;10501716;28;20272;-84
2021/04/21 00:45:51;;;;;;;;;;;7.60;99.90;;;;;;10517159;28;19931;-85
2021/04/21 00:50:57;;;;;;;;;;;7.50;99.90;;;;;;10501780;28;20387;-85
2021/04/21 00:56:04;;;;;;;;;;;7.40;99.90;;;;;;10501568;28;20356;-85
2021/04/21 01:01:08;;;;;;;;;;;7.30;99.90;;;;;;10502057;28;20019;-85
2021/04/21 01:06:16;;;;;;;;;;;7.30;99.90;;;;;;10405663;28;20276;-85
2021/04/21 01:11:23;;;;;;;;;;;7.30;99.90;;;;;;10329803;28;20028;-85
2021/04/21 01:16:27;;;;;;;;;;;7.20;99.90;;;;;;10345069;28;19926;-85
2021/04/21 01:21:33;;;;;;;;;;;7.20;99.90;;;;;;10330488;28;20344;-85
2021/04/21 01:26:37;;;;;;;;;;;7.10;99.90;;;;;;10330971;28;19926;-85
2021/04/21 01:31:39;;;;;;;;;;;7.00;99.90;;;;;;10330131;28;20384;-85
2021/04/21 01:36:42;;;;;;;;;;;8.40;99.90;;;;;;10329076;28;20308;-85
2021/04/21 01:41:45;;;;;;;;;;;7.00;99.90;;;;;;10330546;28;19926;-85
2021/04/21 01:46:53;;;;;;;;;;;6.80;99.90;;;;;;10329612;28;20297;-85
2021/04/21 01:52:07;;;;;;;;;;;6.70;99.90;;;;;;10328212;28;19972;-85
2021/04/21 01:57:11;;;;;;;;;;;6.70;99.90;;;;;;10327790;28;19933;-85
2021/04/21 02:02:24;;;;;;;;;;;6.60;99.90;;;;;;10328500;28;19937;-85
2021/04/21 02:07:32;;;;;;;;;;;6.60;99.90;;;;;;10327956;28;20004;-84
2021/04/21 02:12:48;;;;;;;;;;;6.60;99.90;;;;;;10327138;28;20021;-85
2021/04/21 02:18:07;;;;;;;;;;;6.80;99.90;;;;;;10452715;28;19931;-85
2021/04/21 02:23:12;;;;;;;;;;;6.90;99.90;;;;;;10481512;28;19929;-85
2021/04/21 02:28:22;;;;;;;;;;;7.10;99.90;;;;;;10327525;28;20277;-85
2021/04/21 02:33:23;;;;;;;;;;;7.20;99.90;;;;;;10327150;28;20020;-85
2021/04/21 02:38:47;;;;;;;;;;;8.30;99.90;;;;;;10327886;28;19926;-85
2021/04/21 02:44:09;;;;;;;;;;;7.40;99.90;;;;;;10328206;28;19932;-85
2021/04/21 02:49:29;;;;;;;;;;;7.40;99.90;;;;;;10329141;28;19932;-85
2021/04/21 02:54:47;;;;;;;;;;;7.40;99.90;;;;;;10327923;28;19932;-85
2021/04/21 02:59:51;;;;;;;;;;;7.40;99.90;;;;;;10325670;28;19932;-86
2021/04/21 03:05:11;;;;;;;;;;;7.30;99.90;;;;;;10327543;28;19936;-86
2021/04/21 03:10:17;;;;;;;;;;;7.20;99.90;;;;;;10291221;28;19942;-86
2021/04/21 03:15:20;;;;;;;;;;;7.10;99.90;;;;;;10309523;28;19937;-86
2021/04/21 03:20:23;;;;;;;;;;;6.90;99.90;;;;;;10309467;28;20025;-86
2021/04/21 03:25:31;;;;;;;;;;;7.60;99.90;;;;;;10333025;28;19932;-86
2021/04/21 03:30:32;;;;;;;;;;;6.80;99.90;;;;;;10333465;28;19926;-86
2021/04/21 03:35:34;;;;;;;;;;;6.70;99.90;;;;;;10332414;28;20295;-85
2021/04/21 03:40:36;;;;;;;;;;;6.60;99.90;;;;;;10332758;28;20300;-86
2021/04/21 03:45:39;;;;;;;;;;;6.50;99.90;;;;;;10334235;28;19933;-85
2021/04/21 03:50:42;;;;;;;;;;;6.50;99.90;;;;;;10333276;28;19932;-85
2021/04/21 03:55:44;;;;;;;;;;;6.50;99.90;;;;;;10332274;28;19933;-86
2021/04/21 04:00:49;;;;;;;;;;;8.30;99.90;;;;;;10332683;28;19926;-85
2021/04/21 04:05:57;;;;;;;;;;;6.30;99.90;;;;;;10331683;28;19925;-85
2021/04/21 04:11:00;;;;;;;;;;;6.20;99.90;;;;;;10333623;28;19925;-85
2021/04/21 04:16:03;;;;;;;;;;;6.30;99.90;;;;;;10333297;28;20707;-85
2021/04/21 04:21:05;;;;;;;;;;;6.00;99.90;;;;;;10330867;28;19926;-86
2021/04/21 04:26:08;;;;;;;;;;;6.10;99.90;;;;;;10331705;28;19926;-86
2021/04/21 04:31:09;;;;;;;;;;;8.30;99.90;;;;;;10332021;28;19926;-86
2021/04/21 04:36:11;;;;;;;;;;;6.20;99.90;;;;;;10331741;28;19926;-85
2021/04/21 04:41:12;;;;;;;;;;;7.50;99.90;;;;;;10334849;28;19930;-86
2021/04/21 04:46:16;;;;;;;;;;;6.40;99.90;;;;;;10331308;28;19932;-86
2021/04/21 04:51:18;;;;;;;;;;;6.50;99.90;;;;;;10331662;28;19961;-86
2021/04/21 04:56:20;;;;;;;;;;;6.60;99.90;;;;;;10347533;28;20021;-86
2021/04/21 05:01:22;;;;;;;;;;;7.30;99.90;;;;;;10331764;28;19925;-85
2021/04/21 05:06:32;;;;;;;;;;;6.80;99.90;;;;;;10358757;23;19929;-90
2021/04/21 05:11:34;;;;;;;;;;;7.00;99.90;;;;;;10355448;28;19929;-90
2021/04/21 05:16:51;;;;;;;;;;;7.50;99.90;;;;;;10354939;28;19925;-90
2021/04/21 05:21:52;;;;;;;;;;;7.30;99.90;;;;;;10332234;28;19933;-90
2021/04/21 05:27:12;;;;;;;;;;;7.40;99.90;;;;;;10342139;28;19940;-90
2021/04/21 05:32:28;;;;;;;;;;;7.40;99.90;;;;;;10354486;28;19930;-90
2021/04/21 05:37:48;;;;;;;;;;;7.50;99.90;;;;;;10354062;28;20333;-90
2021/04/21 05:43:13;;;;;;;;;;;7.50;99.90;;;;;;10370704;28;19929;-89
2021/04/21 05:48:31;;;;;;;;;;;7.70;99.90;;;;;;10354455;28;19925;-90
2021/04/21 05:53:50;;;;;;;;;;;7.80;99.90;;;;;;10371039;28;19926;-90
2021/04/21 05:59:14;;;;;;;;;;;8.10;99.90;;;;;;10370671;28;19943;-90
2021/04/21 06:04:16;;;;;;;;;;;8.40;99.90;;;;;;10370178;28;20379;-90
2021/04/21 06:09:17;;;;;;;;;;;8.50;99.90;;;;;;10370940;28;19925;-90
2021/04/21 06:14:21;;;;;;;;;;;9.00;99.90;;;;;;10361299;28;19926;-91
2021/04/21 06:19:24;;;;;;;;;;;9.70;99.90;;;;;;10414021;28;19929;-90
2021/04/21 06:24:27;;;;;;;;;;;9.60;99.90;;;;;;10395395;28;20016;-91
2021/04/21 06:29:28;;;;;;;;;;;10.30;99.90;;;;;;10352664;28;19937;-91
2021/04/21 06:34:29;;;;;;;;;;;12.60;99.90;;;;;;10374346;28;19929;-91
2021/04/21 06:39:31;;;;;;;;;;;13.50;99.90;;;;;;10367081;28;19925;-91
2021/04/21 06:44:42;;;;;;;;;;;14.00;99.90;;;;;;10354861;28;20283;-91
2021/04/21 06:49:44;;;;;;;;;;;13.90;99.90;;;;;;10360069;28;20024;-88
2021/04/21 06:55:00;;;;;;;;;;;13.60;99.90;;;;;;10359316;28;20376;-88
2021/04/21 07:00:12;;;;;;;;;;;14.10;99.90;;;;;;10375062;28;20005;-88
2021/04/21 07:05:34;;;;;;;;;;;14.20;99.90;;;;;;10367269;28;20017;-90
2021/04/21 07:10:37;;;;;;;;;;;13.60;99.90;;;;;;10333952;28;19973;-90
2021/04/21 07:15:39;;;;;;;;;;;13.50;99.90;;;;;;10344561;28;19925;-91
2021/04/21 07:20:40;;;;;;;;;;;13.90;99.90;;;;;;10359147;28;19939;-89
2021/04/21 07:25:45;;;;;;;;;;;14.00;99.90;;;;;;10351978;28;20012;-92
2021/04/21 07:30:47;;;;;;;;;;;14.20;99.90;;;;;;10402692;28;19940;-90
2021/04/21 07:35:48;;;;;;;;;;;14.00;99.90;;;;;;10334817;28;20277;-92
2021/04/21 07:40:50;;;;;;;;;;;15.10;99.90;;;;;;10401871;28;20287;-92
2021/04/21 07:45:58;;;;;;;;;;;15.40;99.90;;;;;;10358772;28;19926;-92
2021/04/21 07:51:25;;;;;;;;;;;15.10;99.80;;;;;;10443065;28;19991;-92
2021/04/21 07:56:34;;;;;;;;;;;15.60;98.70;;;;;;10373725;28;19932;-92
2021/04/21 08:01:35;;;;;;;;;;;15.70;98.20;;;;;;10357704;28;19932;-91
2021/04/21 08:06:40;;;;;;;;;;;16.20;96.90;;;;;;10374060;28;19947;-92
2021/04/21 08:11:42;;;;;;;;;;;15.80;95.70;;;;;;10374181;28;19926;-92
2021/04/21 08:16:57;;;;;;;;;;;16.40;94.50;;;;;;10372713;28;20435;-94
2021/04/21 08:21:58;;;;;;;;;;;16.30;92.80;;;;;;10373223;28;19926;-93
2021/04/21 08:27:00;;;;;;;;;;;17.00;92.10;;;;;;10373719;28;20384;-92
2021/04/21 08:32:01;;;;;;;;;;;16.70;93.30;;;;;;10372068;28;19925;-90
2021/04/21 08:37:03;;;;;;;;;;;16.50;91.40;;;;;;10371380;28;19929;-90
2021/04/21 08:42:06;;;;;;;;;;;16.00;92.50;;;;;;10440898;28;19936;-90
2021/04/21 08:47:08;;;;;;;;;;;16.30;93.00;;;;;;10372277;28;19925;-90
2021/04/21 08:52:16;;;;;;;;;;;16.60;92.70;;;;;;10440007;28;20280;-90
2021/04/21 08:57:18;;;;;;;;;;;17.60;90.30;;;;;;10370025;28;19926;-90
2021/04/21 09:02:19;;;;;;;;;;;16.60;90.90;;;;;;10370412;28;19943;-90
2021/04/21 09:07:21;;;;;;;;;;;16.80;87.10;;;;;;10514150;28;19959;-90
2021/04/21 09:12:22;;;;;;;;;;;16.80;90.40;;;;;;10568374;28;19924;-90
2021/04/21 09:17:23;;;;;;;;;;;17.20;91.20;;;;;;10541709;28;19924;-90
2021/04/21 09:22:25;;;;;;;;;;;17.50;88.50;;;;;;10541962;28;19935;-90
2021/04/21 09:27:34;;;;;;;;;;;17.50;86.70;;;;;;10543577;28;19924;-90
2021/04/21 09:32:55;;;;;;;;;;;18.60;81.80;;;;;;10540956;28;19924;-89
2021/04/21 09:38:02;;;;;;;;;;;18.40;82.50;;;;;;10499649;28;19925;-89
2021/04/21 09:43:04;;;;;;;;;;;18.70;75.20;;;;;;10499706;28;19929;-90
2021/04/21 09:48:10;;;;;;;;;;;19.50;73.40;;;;;;10481902;28;20382;-90
2021/04/21 09:53:18;;;;;;;;;;;19.40;66.40;;;;;;10482541;28;19931;-90
2021/04/21 09:58:30;;;;;;;;;;;19.40;74.10;;;;;;10498321;28;20363;-90
2021/04/21 10:03:31;;;;;;;;;;;19.00;70.00;;;;;;10508923;28;19924;-90
2021/04/21 10:08:33;;;;;;;;;;;18.80;72.50;;;;;;10351450;28;19932;-89
2021/04/21 10:13:48;;;;;;;;;;;18.90;71.70;;;;;;10329486;28;19932;-89
2021/04/21 10:18:49;;;;;;;;;;;18.60;70.10;;;;;;10344145;28;19926;-89
2021/04/21 10:23:52;;;;;;;;;;;18.60;68.60;;;;;;10329017;28;19937;-88
2021/04/21 10:28:53;;;;;;;;;;;18.80;64.30;;;;;;10342925;28;19925;-89
2021/04/21 10:33:55;;;;;;;;;;;19.50;64.70;;;;;;10343889;28;19925;-89
2021/04/21 10:38:57;;;;;;;;;;;19.30;66.10;;;;;;10361791;28;20278;-90
2021/04/21 10:44:06;;;;;;;;;;;19.00;65.40;;;;;;10500165;28;19931;-89
2021/04/21 10:49:27;;;;;;;;;;;19.10;59.40;;;;;;10557008;28;19974;-89
2021/04/21 10:54:32;;;;;;;;;;;18.80;60.40;;;;;;10540143;28;19979;-92
2021/04/21 10:59:52;;;;;;;;;;;20.10;58.50;;;;;;10424899;28;20307;-92
2021/04/21 11:05:03;;;;;;;;;;;19.80;61.20;;;;;;10333624;28;19939;-90
2021/04/21 11:10:08;;;;;;;;;;;19.40;58.00;;;;;;10368010;28;20388;-90
2021/04/21 11:15:10;;;;;;;;;;;19.40;62.20;;;;;;10366988;28;20390;-90
2021/04/21 11:20:31;;;;;;;;;;;19.50;68.70;;;;;;10344382;23;19925;-86
2021/04/21 11:25:33;;;;;;;;;;;20.00;62.30;;;;;;10326320;28;19925;-86
2021/04/21 11:30:34;;;;;;;;;;;19.70;61.10;;;;;;10331996;28;19926;-86
2021/04/21 11:35:36;;;;;;;;;;;20.10;58.90;;;;;;10330995;28;20412;-86
2021/04/21 11:40:37;;;;;;;;;;;20.00;62.70;;;;;;10309211;28;19976;-86
2021/04/21 11:45:39;;;;;;;;;;;20.60;60.90;;;;;;10294034;28;19932;-87
2021/04/21 11:50:41;;;;;;;;;;;20.20;60.20;;;;;;10308225;28;20016;-87
2021/04/21 11:55:54;;;;;;;;;;;20.40;62.10;;;;;;10326572;28;20000;-87
2021/04/21 12:00:57;;;;;;;;;;;19.10;65.80;;;;;;10331831;28;20025;-86
2021/04/21 12:06:00;;;;;;;;;;;17.10;75.70;;;;;;10333694;28;19926;-86
2021/04/21 12:11:02;;;;;;;;;;;17.30;77.70;;;;;;10349173;28;19925;-86
2021/04/21 12:16:11;;;;;;;;;;;17.20;82.40;;;;;;10331357;28;20361;-86
2021/04/21 12:21:16;;;;;;;;;;;18.20;78.50;;;;;;10331157;28;20016;-87
2021/04/21 12:26:22;;;;;;;;;;;17.20;77.20;;;;;;10332829;28;19961;-86
2021/04/21 12:31:24;;;;;;;;;;;17.10;77.70;;;;;;10330596;28;20280;-86
2021/04/21 12:36:30;;;;;;;;;;;16.70;81.60;;;;;;10328011;28;20399;-87
2021/04/21 12:41:32;;;;;;;;;;;16.20;80.70;;;;;;10329144;28;19979;-87
2021/04/21 12:46:37;;;;;;;;;;;16.60;84.00;;;;;;10338831;28;19933;-86
2021/04/21 12:51:58;;;;;;;;;;;16.10;87.50;;;;;;10360656;28;19925;-86
2021/04/21 12:56:59;;;;;;;;;;;15.20;95.40;;;;;;10329656;28;20396;-85
2021/04/21 13:02:00;;;;;;;;;;;15.30;95.10;;;;;;10329016;28;20590;-86
2021/04/21 13:07:20;;;;;;;;;;;16.70;94.90;;;;;;10327910;28;19979;-86
2021/04/21 13:12:22;;;;;;;;;;;16.90;93.90;;;;;;10336192;28;20375;-87
2021/04/21 13:17:24;;;;;;;;;;;17.40;91.40;;;;;;10369841;28;20000;-86
2021/04/21 13:22:26;;;;;;;;;;;17.50;92.60;;;;;;10333142;28;19973;-85
2021/04/21 13:27:31;;;;;;;;;;;16.20;92.30;;;;;;10350419;28;19929;-86
2021/04/21 13:32:33;;;;;;;;;;;15.40;96.00;;;;;;10345867;28;19930;-86
2021/04/21 13:37:35;;;;;;;;;;;15.70;94.10;;;;;;10335573;28;19934;-86
2021/04/21 13:42:38;;;;;;;;;;;15.70;93.10;;;;;;10367037;28;19937;-86
2021/04/21 13:47:43;;;;;;;;;;;16.00;93.70;;;;;;10349110;28;19975;-87
2021/04/21 13:52:45;;;;;;;;;;;15.80;92.90;;;;;;10341860;28;19930;-86
2021/04/21 13:57:46;;;;;;;;;;;15.70;93.90;;;;;;10364289;28;20444;-85
2021/04/21 14:02:48;;;;;;;;;;;15.50;94.20;;;;;;10364511;28;19930;-85
2021/04/21 14:07:49;;;;;;;;;;;15.50;94.00;;;;;;10313893;28;19926;-86
2021/04/21 14:12:51;;;;;;;;;;;15.50;94.70;;;;;;10286260;28;19926;-85
2021/04/21 14:17:52;;;;;;;;;;;15.40;94.00;;;;;;10287428;28;19930;-86
2021/04/21 14:22:56;;;;;;;;;;;15.10;93.00;;;;;;10323791;28;20008;-86
2021/04/21 14:27:57;;;;;;;;;;;14.90;94.10;;;;;;10326751;28;19934;-87
2021/04/21 14:33:00;;;;;;;;;;;15.60;92.00;;;;;;10369831;28;20021;-86
2021/04/21 14:38:01;;;;;;;;;;;15.60;93.90;;;;;;10366920;28;19933;-85
2021/04/21 14:43:03;;;;;;;;;;;15.50;94.10;;;;;;10364993;28;19935;-87
2021/04/21 14:48:04;;;;;;;;;;;16.10;92.90;;;;;;10326698;28;20336;-87
2021/04/21 14:53:06;;;;;;;;;;;15.70;93.60;;;;;;10317602;28;19948;-87
2021/04/21 14:58:08;;;;;;;;;;;15.60;91.70;;;;;;10324928;28;20383;-86
2021/04/21 15:03:09;;;;;;;;;;;15.10;95.50;;;;;;10324581;28;19932;-87
2021/04/21 15:08:11;;;;;;;;;;;16.00;93.30;;;;;;10332309;28;19933;-87
2021/04/21 15:13:14;;;;;;;;;;;15.80;93.20;;;;;;10348897;28;19926;-87
2021/04/21 15:18:16;;;;;;;;;;;15.60;93.30;;;;;;10332858;28;19926;-86
2021/04/21 15:23:17;;;;;;;;;;;15.00;91.80;;;;;;10345498;28;20398;-86
2021/04/21 15:28:20;;;;;;;;;;;15.00;91.90;;;;;;10315720;28;20331;-86
2021/04/21 15:33:24;;;;;;;;;;;15.70;91.60;;;;;;10331671;28;20008;-88
2021/04/21 15:38:25;;;;;;;;;;;15.10;92.50;;;;;;10331963;28;19930;-87
2021/04/21 15:43:26;;;;;;;;;;;14.70;91.80;;;;;;10348193;28;19933;-87
2021/04/21 15:48:28;;;;;;;;;;;14.70;93.70;;;;;;10359273;28;20379;-87
2021/04/21 15:53:29;;;;;;;;;;;14.50;92.90;;;;;;10360361;28;19926;-86
2021/04/21 15:58:32;;;;;;;;;;;14.20;93.10;;;;;;10348723;28;19933;-87
2021/04/21 16:03:34;;;;;;;;;;;13.80;93.50;;;;;;10348990;28;19932;-85
2021/04/21 16:08:35;;;;;;;;;;;14.20;93.20;;;;;;10544223;28;19928;-84
2021/04/21 16:13:37;;;;;;;;;;;14.30;94.20;;;;;;10514343;28;19933;-85
2021/04/21 16:18:39;;;;;;;;;;;14.00;93.70;;;;;;10331820;28;19961;-85
2021/04/21 16:23:42;;;;;;;;;;;14.00;92.40;;;;;;10346458;28;20391;-85
2021/04/21 16:28:44;;;;;;;;;;;14.00;92.50;;;;;;10332619;28;19925;-86
2021/04/21 16:33:46;;;;;;;;;;;13.70;93.10;;;;;;10331876;28;20532;-86
2021/04/21 16:38:47;;;;;;;;;;;14.10;92.70;;;;;;10332715;28;19926;-86
2021/04/21 16:43:49;;;;;;;;;;;13.70;93.20;;;;;;10315643;28;20029;-86
2021/04/21 16:49:02;;;;;;;;;;;13.20;93.70;;;;;;10328371;28;19936;-86
2021/04/21 16:54:05;;;;;;;;;;;12.90;93.90;;;;;;10330771;28;19932;-86
2021/04/21 16:59:06;;;;;;;;;;;12.70;93.50;;;;;;10330803;28;19926;-87
2021/04/21 17:04:08;;;;;;;;;;;12.50;95.30;;;;;;10327354;28;19941;-87
2021/04/21 17:09:12;;;;;;;;;;;12.60;94.90;;;;;;10346591;28;19952;-87
2021/04/21 17:14:14;;;;;;;;;;;12.60;93.00;;;;;;10345626;28;19962;-88
2021/04/21 17:19:15;;;;;;;;;;;11.70;93.80;;;;;;10337246;22;19925;-88
2021/04/21 17:24:17;;;;;;;;;;;11.80;92.40;;;;;;10370827;28;19971;-88
2021/04/21 17:29:19;;;;;;;;;;;11.70;92.60;;;;;;10368823;28;20323;-88
2021/04/21 17:34:20;;;;;;;;;;;11.70;91.70;;;;;;10399651;28;19930;-88
2021/04/21 17:39:22;;;;;;;;;;;11.40;92.60;;;;;;10362805;28;19925;-88
2021/04/21 17:44:23;;;;;;;;;;;11.30;91.40;;;;;;10353324;28;20040;-88
2021/04/21 17:49:25;;;;;;;;;;;11.10;91.60;;;;;;10369732;28;20020;-88
2021/04/21 17:54:28;;;;;;;;;;;11.40;91.50;;;;;;10368637;28;20315;-88
2021/04/21 17:59:31;;;;;;;;;;;10.70;91.70;;;;;;10366587;28;19936;-88
2021/04/21 18:04:32;;;;;;;;;;;10.40;92.40;;;;;;10340865;28;19976;-88
2021/04/21 18:09:34;;;;;;;;;;;10.40;91.30;;;;;;10365774;28;19929;-88
2021/04/21 18:14:38;;;;;;;;;;;10.60;93.00;;;;;;10364811;28;20283;-88
2021/04/21 18:19:40;;;;;;;;;;;10.00;93.40;;;;;;10368378;28;19926;-88
2021/04/21 18:24:42;;;;;;;;;;;9.90;93.00;;;;;;10366433;28;20329;-87
2021/04/21 18:29:43;;;;;;;;;;;10.10;92.50;;;;;;10369441;28;19932;-87
2021/04/21 18:34:45;;;;;;;;;;;9.50;92.20;;;;;;10354135;28;19926;-87
2021/04/21 18:39:46;;;;;;;;;;;9.60;92.80;;;;;;10365901;28;19935;-87
2021/04/21 18:44:47;;;;;;;;;;;9.10;94.00;;;;;;10374206;28;19988;-88
2021/04/21 18:49:49;;;;;;;;;;;9.00;94.70;;;;;;10366136;28;19926;-87
2021/04/21 18:54:51;;;;;;;;;;;10.10;94.50;;;;;;10360402;28;20005;-88
2021/04/21 18:59:53;;;;;;;;;;;8.70;95.00;;;;;;10343357;28;19926;-88
2021/04/21 19:04:54;;;;;;;;;;;8.60;96.60;;;;;;10367252;28;19976;-88
2021/04/21 19:09:55;;;;;;;;;;;8.40;97.00;;;;;;10345267;28;19931;-88
2021/04/21 19:14:56;;;;;;;;;;;9.80;97.10;;;;;;10537914;28;19934;-88
2021/04/21 19:19:59;;;;;;;;;;;8.10;96.20;;;;;;10385665;28;20305;-88
2021/04/21 19:25:02;;;;;;;;;;;8.00;96.40;;;;;;10342778;28;20041;-88
2021/04/21 19:30:05;;;;;;;;;;;7.90;95.90;;;;;;10365632;28;19948;-88
2021/04/21 19:35:07;;;;;;;;;;;7.80;96.50;;;;;;10348531;28;19936;-88
2021/04/21 19:40:09;;;;;;;;;;;7.60;97.60;;;;;;10354155;28;19926;-89
2021/04/21 19:45:11;;;;;;;;;;;7.50;99.90;;;;;;10451783;28;19930;-88
2021/04/21 19:50:14;;;;;;;;;;;7.80;99.90;;;;;;10368030;28;20012;-88
2021/04/21 19:55:19;;;;;;;;;;;7.20;99.30;;;;;;10376173;28;19931;-89
2021/04/21 20:00:21;;;;;;;;;;;7.40;99.90;;;;;;10372693;28;19936;-89
2021/04/21 20:05:22;;;;;;;;;;;7.30;99.60;;;;;;10371995;28;19936;-88
2021/04/21 20:10:27;;;;;;;;;;;6.90;97.10;;;;;;10366155;28;20394;-88
2021/04/21 20:15:29;;;;;;;;;;;7.00;98.80;;;;;;10449247;28;19930;-88
2021/04/21 20:20:30;;;;;;;;;;;6.90;98.30;;;;;;10434789;28;20029;-88
2021/04/21 20:25:32;;;;;;;;;;;6.80;98.10;;;;;;10440268;28;19925;-88
2021/04/21 20:30:40;;;;;;;;;;;6.80;99.30;;;;;;10372035;28;20213;-88
2021/04/21 20:35:42;;;;;;;;;;;6.70;99.70;;;;;;10388308;28;19926;-89
2021/04/21 20:40:43;;;;;;;;;;;9.50;99.60;;;;;;10379880;28;20291;-89
2021/04/21 20:45:45;;;;;;;;;;;6.40;99.00;;;;;;10386971;28;20384;-89
2021/04/21 20:50:46;;;;;;;;;;;6.40;99.30;;;;;;10385606;28;19932;-89
2021/04/21 20:55:47;;;;;;;;;;;6.30;98.80;;;;;;10354849;28;19930;-88
2021/04/21 21:00:52;;;;;;;;;;;6.50;99.90;;;;;;10371423;28;19929;-88
2021/04/21 21:05:54;;;;;;;;;;;6.20;99.70;;;;;;10371050;28;19926;-88
2021/04/21 21:10:57;;;;;;;;;;;6.00;99.90;;;;;;10352701;28;19933;-88
2021/04/21 21:15:59;;;;;;;;;;;6.00;99.90;;;;;;10354650;28;19932;-88
2021/04/21 21:21:00;;;;;;;;;;;6.40;99.90;;;;;;10341753;28;19926;-88
2021/04/21 21:26:03;;;;;;;;;;;5.90;99.90;;;;;;10305740;28;20377;-88
2021/04/21 21:31:04;;;;;;;;;;;6.10;99.90;;;;;;10289786;28;19926;-88
2021/04/21 21:36:06;;;;;;;;;;;5.70;99.90;;;;;;10289920;28;19934;-88
2021/04/21 21:41:16;;;;;;;;;;;5.70;99.90;;;;;;10280419;28;19930;-89
2021/04/21 21:46:17;;;;;;;;;;;5.50;99.90;;;;;;10305412;28;19933;-88
2021/04/21 21:51:19;;;;;;;;;;;5.40;99.90;;;;;;10289656;28;20020;-88
2021/04/21 21:56:20;;;;;;;;;;;5.40;99.90;;;;;;10305262;28;20021;-88
2021/04/21 22:01:22;;;;;;;;;;;6.70;99.90;;;;;;10264140;28;20451;-89
2021/04/21 22:06:24;;;;;;;;;;;6.10;99.90;;;;;;10264414;28;20021;-89
2021/04/21 22:11:28;;;;;;;;;;;6.10;99.90;;;;;;10265002;28;19927;-89
2021/04/21 22:16:30;;;;;;;;;;;4.90;99.90;;;;;;10253735;28;19926;-89
2021/04/21 22:21:31;;;;;;;;;;;5.10;99.90;;;;;;10308069;28;19926;-88
2021/04/21 22:26:33;;;;;;;;;;;4.70;99.90;;;;;;10337803;28;19932;-89
2021/04/21 22:31:35;;;;;;;;;;;4.80;99.90;;;;;;10395658;28;19965;-88
2021/04/21 22:36:37;;;;;;;;;;;5.00;99.90;;;;;;10337084;28;19969;-89
2021/04/21 22:41:38;;;;;;;;;;;4.70;99.90;;;;;;10368008;28;20288;-89
2021/04/21 22:46:42;;;;;;;;;;;6.60;99.90;;;;;;10367363;28;19932;-89
2021/04/21 22:51:45;;;;;;;;;;;4.20;99.90;;;;;;10342379;28;19933;-89
2021/04/21 22:56:48;;;;;;;;;;;5.20;99.90;;;;;;10412792;28;19926;-89
2021/04/21 23:01:49;;;;;;;;;;;4.40;99.90;;;;;;10412714;28;19973;-88
2021/04/21 23:06:51;;;;;;;;;;;6.40;99.90;;;;;;10412515;28;19926;-89
2021/04/21 23:11:53;;;;;;;;;;;4.00;99.90;;;;;;10412510;28;19926;-89
2021/04/21 23:17:00;;;;;;;;;;;4.10;99.90;;;;;;10408108;28;20375;-89
2021/04/21 23:22:01;;;;;;;;;;;4.00;99.90;;;;;;10306178;28;19926;-89
2021/04/21 23:27:02;;;;;;;;;;;4.30;99.90;;;;;;10415277;28;19926;-89
2021/04/21 23:32:04;;;;;;;;;;;4.20;99.90;;;;;;10418524;28;20384;-89
2021/04/21 23:37:05;;;;;;;;;;;4.00;99.90;;;;;;10500297;22;20367;-90
2021/04/21 23:42:08;;;;;;;;;;;5.50;99.90;;;;;;10479835;28;19925;-90
2021/04/21 23:47:11;;;;;;;;;;;3.30;99.90;;;;;;10463062;28;20298;-90
2021/04/21 23:52:12;;;;;;;;;;;5.60;99.90;;;;;;10475785;28;19929;-90
2021/04/21 23:57:16;;;;;;;;;;;4.20;99.90;;;;;;10464475;28;19925;-90
